Time;durP1;ratioP1;P1;durP2;ratioP2;P2;SDS_P1;SDS_P2;PMS_P1;PMS_P2;Temp;Humidity;BMP_temperature;BMP_pressure;BME280_temperature;BME280_humidity;BME280_pressure;Samples;Min_cycle;Max_cycle;Signal;HPM_P1;HPM_P2
2021/08/20 00:01:06;;;;;;;45.53;28.23;;;17.80;99.90;;;;;;5054017;28;20136;-70
2021/08/20 00:03:32;;;;;;;43.20;28.55;;;17.80;99.90;;;;;;5053656;28;20022;-70
2021/08/20 00:05:58;;;;;;;44.65;26.90;;;17.80;99.90;;;;;;5053373;28;20035;-68
2021/08/20 00:08:23;;;;;;;44.42;26.25;;;17.70;99.90;;;;;;5053386;28;20041;-70
2021/08/20 00:10:50;;;;;;;41.00;26.45;;;17.60;99.90;;;;;;5052260;28;20125;-70
2021/08/20 00:13:15;;;;;;;45.20;28.17;;;17.60;99.90;;;;;;5053567;28;20753;-70
2021/08/20 00:15:41;;;;;;;40.22;25.55;;;17.60;99.90;;;;;;5053737;28;20084;-70
2021/08/20 00:18:07;;;;;;;42.33;25.77;;;17.70;99.90;;;;;;5053008;28;20116;-69
2021/08/20 00:20:32;;;;;;;43.95;27.58;;;17.70;99.90;;;;;;5053137;28;20037;-70
2021/08/20 00:22:58;;;;;;;43.22;26.40;;;17.70;99.90;;;;;;5052782;28;20033;-70
2021/08/20 00:25:23;;;;;;;40.33;25.52;;;17.70;99.90;;;;;;5053316;28;20154;-69
2021/08/20 00:27:49;;;;;;;39.20;25.90;;;17.80;99.90;;;;;;5052941;28;20175;-70
2021/08/20 00:30:15;;;;;;;44.42;26.20;;;17.70;99.90;;;;;;5051945;28;20136;-70
2021/08/20 00:32:40;;;;;;;41.97;26.30;;;17.70;99.90;;;;;;5052903;28;20044;-69
2021/08/20 00:35:06;;;;;;;38.65;24.63;;;17.70;99.90;;;;;;5052774;28;20513;-70
2021/08/20 00:37:33;;;;;;;39.55;24.90;;;17.80;99.90;;;;;;5052667;28;20100;-71
2021/08/20 00:39:59;;;;;;;38.22;24.00;;;17.80;99.90;;;;;;5053202;28;20447;-71
2021/08/20 00:42:25;;;;;;;41.90;24.67;;;17.80;99.90;;;;;;5052866;28;20040;-71
2021/08/20 00:44:51;;;;;;;39.58;24.58;;;17.70;99.90;;;;;;5052772;28;20037;-70
2021/08/20 00:47:17;;;;;;;37.00;23.63;;;17.80;99.90;;;;;;5051598;28;20048;-70
2021/08/20 00:49:43;;;;;;;40.58;23.73;;;17.70;99.90;;;;;;5051060;28;20064;-70
2021/08/20 00:52:09;;;;;;;37.75;24.65;;;17.70;99.90;;;;;;5052929;28;20490;-70
2021/08/20 00:54:35;;;;;;;37.45;24.10;;;17.80;99.90;;;;;;5052556;28;20021;-70
2021/08/20 00:57:03;;;;;;;37.22;24.05;;;17.70;99.90;;;;;;5052314;28;20414;-70
2021/08/20 00:59:29;;;;;;;44.45;24.20;;;17.70;99.90;;;;;;5052510;28;20075;-71
2021/08/20 01:01:54;;;;;;;39.40;25.10;;;17.70;99.90;;;;;;5052425;28;20483;-70
2021/08/20 01:04:20;;;;;;;38.70;23.67;;;17.70;99.90;;;;;;5052677;28;20430;-70
2021/08/20 01:06:46;;;;;;;36.85;23.70;;;17.60;99.90;;;;;;5052373;28;20071;-70
2021/08/20 01:09:11;;;;;;;38.55;24.20;;;17.60;99.90;;;;;;5052370;28;20099;-69
2021/08/20 01:11:37;;;;;;;39.67;23.73;;;17.60;99.90;;;;;;5052436;28;20158;-70
2021/08/20 01:14:05;;;;;;;38.55;24.25;;;17.40;99.90;;;;;;5052278;28;20451;-71
2021/08/20 01:16:31;;;;;;;45.10;25.40;;;17.40;99.90;;;;;;5052791;28;20033;-71
2021/08/20 01:18:57;;;;;;;41.65;24.45;;;17.50;99.90;;;;;;5052335;28;20048;-71
2021/08/20 01:21:24;;;;;;;43.78;26.38;;;17.60;99.90;;;;;;5052277;28;20087;-70
2021/08/20 01:23:52;;;;;;;42.53;26.67;;;17.50;99.90;;;;;;5052264;28;20067;-70
2021/08/20 01:26:18;;;;;;;40.67;24.85;;;17.60;99.90;;;;;;5052034;28;20055;-70
2021/08/20 01:28:44;;;;;;;38.70;24.38;;;17.50;99.90;;;;;;5052016;28;20036;-71
2021/08/20 01:31:13;;;;;;;40.58;25.10;;;17.50;99.90;;;;;;5052559;28;20465;-71
2021/08/20 01:33:39;;;;;;;36.97;23.55;;;17.50;99.90;;;;;;5052148;28;20055;-71
2021/08/20 01:36:04;;;;;;;34.78;21.90;;;17.50;99.90;;;;;;5041054;28;20033;-71
2021/08/20 01:38:31;;;;;;;36.78;22.30;;;17.50;99.90;;;;;;5031847;28;20029;-71
2021/08/20 01:40:57;;;;;;;33.55;20.73;;;17.60;99.90;;;;;;5030647;28;20155;-70
2021/08/20 01:43:23;;;;;;;30.23;17.88;;;17.50;99.90;;;;;;5032071;28;20112;-70
2021/08/20 01:45:50;;;;;;;26.42;16.42;;;17.50;99.90;;;;;;5031889;28;20034;-70
2021/08/20 01:48:16;;;;;;;25.35;16.02;;;17.50;99.90;;;;;;5031712;28;20029;-70
2021/08/20 01:50:43;;;;;;;22.88;14.85;;;17.50;99.90;;;;;;5031636;28;20053;-70
2021/08/20 01:53:12;;;;;;;22.77;14.77;;;17.30;99.90;;;;;;5031412;28;20026;-71
2021/08/20 01:55:39;;;;;;;29.55;14.85;;;17.30;99.90;;;;;;5031646;28;20029;-71
2021/08/20 01:58:05;;;;;;;23.58;13.70;;;17.30;99.90;;;;;;5031836;28;20021;-70
2021/08/20 02:00:31;;;;;;;23.50;14.48;;;17.40;99.90;;;;;;5031729;28;20038;-71
2021/08/20 02:02:56;;;;;;;26.70;14.85;;;17.40;99.90;;;;;;5031341;28;20434;-71
2021/08/20 02:05:22;;;;;;;23.80;15.68;;;17.40;99.90;;;;;;5031335;28;20120;-71
2021/08/20 02:07:48;;;;;;;22.83;14.30;;;17.40;99.90;;;;;;5031335;28;20029;-70
2021/08/20 02:10:13;;;;;;;24.05;16.35;;;17.40;99.90;;;;;;5031574;28;20423;-71
2021/08/20 02:12:39;;;;;;;22.67;15.32;;;17.40;99.90;;;;;;5031473;28;20349;-70
2021/08/20 02:15:06;;;;;;;31.23;17.77;;;17.40;99.90;;;;;;5031174;28;20479;-70
2021/08/20 02:17:31;;;;;;;25.90;17.13;;;17.50;99.90;;;;;;5031235;28;20526;-70
2021/08/20 02:19:57;;;;;;;30.55;17.83;;;17.40;99.90;;;;;;5030050;28;20113;-70
2021/08/20 02:22:22;;;;;;;33.92;16.25;;;17.50;99.90;;;;;;5030576;28;20068;-70
2021/08/20 02:24:52;;;;;;;25.30;17.20;;;17.50;99.90;;;;;;5031194;28;20110;-71
2021/08/20 02:27:18;;;;;;;31.70;19.38;;;17.50;99.90;;;;;;5030907;28;20029;-71
2021/08/20 02:29:44;;;;;;;31.50;18.60;;;17.50;99.90;;;;;;5031162;28;20044;-71
2021/08/20 02:32:09;;;;;;;30.05;18.73;;;17.50;99.90;;;;;;5031186;28;20029;-72
2021/08/20 02:34:35;;;;;;;28.60;18.55;;;17.50;99.90;;;;;;5030833;28;20040;-71
2021/08/20 02:37:00;;;;;;;30.10;19.13;;;17.50;99.90;;;;;;5031469;28;20029;-71
2021/08/20 02:39:26;;;;;;;31.55;19.13;;;17.50;99.90;;;;;;5030868;28;20493;-71
2021/08/20 02:41:51;;;;;;;27.65;18.73;;;17.50;99.90;;;;;;5030932;28;20044;-71
2021/08/20 02:44:17;;;;;;;32.80;20.17;;;17.50;99.90;;;;;;5030950;28;20067;-71
2021/08/20 02:46:44;;;;;;;34.50;20.90;;;17.50;99.90;;;;;;5030732;28;20696;-71
2021/08/20 02:49:10;;;;;;;33.17;20.73;;;17.50;99.90;;;;;;5031942;28;20041;-71
2021/08/20 02:51:36;;;;;;;34.15;22.60;;;17.50;99.90;;;;;;5030839;28;20376;-71
2021/08/20 02:54:01;;;;;;;37.95;22.52;;;17.50;99.90;;;;;;5034366;28;20044;-71
2021/08/20 02:56:27;;;;;;;38.50;24.83;;;17.50;99.90;;;;;;5037301;28;20068;-70
2021/08/20 02:58:52;;;;;;;40.97;23.63;;;17.50;99.90;;;;;;5037230;28;20306;-70
2021/08/20 03:01:18;;;;;;;39.33;23.70;;;17.50;99.90;;;;;;5037438;28;20017;-70
2021/08/20 03:03:43;;;;;;;44.22;25.10;;;17.50;99.90;;;;;;5037268;28;20025;-70
2021/08/20 03:06:09;;;;;;;35.47;23.33;;;17.50;99.90;;;;;;5037243;28;20032;-70
2021/08/20 03:08:37;;;;;;;40.78;24.85;;;17.50;99.90;;;;;;5037118;28;20034;-70
2021/08/20 03:11:03;;;;;;;36.53;23.48;;;17.50;99.90;;;;;;5037032;28;20034;-70
2021/08/20 03:13:29;;;;;;;39.92;25.17;;;17.50;99.90;;;;;;5037730;28;20104;-71
2021/08/20 03:15:54;;;;;;;37.03;24.42;;;17.50;99.90;;;;;;5037256;28;20044;-70
2021/08/20 03:18:20;;;;;;;37.05;23.75;;;17.60;99.90;;;;;;5037363;28;20121;-71
2021/08/20 03:20:45;;;;;;;35.75;23.38;;;17.60;99.90;;;;;;5037361;28;20041;-70
2021/08/20 03:23:11;;;;;;;36.35;23.42;;;17.60;99.90;;;;;;5037253;28;20065;-71
2021/08/20 03:25:37;;;;;;;35.58;23.60;;;17.60;99.90;;;;;;5037192;28;20235;-70
2021/08/20 03:28:05;;;;;;;37.15;21.80;;;17.50;99.90;;;;;;5037705;28;20351;-71
2021/08/20 03:30:31;;;;;;;34.28;22.00;;;17.50;99.90;;;;;;5037017;28;20045;-70
2021/08/20 03:32:57;;;;;;;38.33;22.83;;;17.50;99.90;;;;;;5036920;28;20066;-70
2021/08/20 03:35:23;;;;;;;34.15;21.25;;;17.50;99.90;;;;;;5036841;28;20204;-70
2021/08/20 03:37:48;;;;;;;35.05;23.33;;;17.40;99.90;;;;;;5036857;28;20079;-70
2021/08/20 03:40:14;;;;;;;35.90;21.25;;;17.40;99.90;;;;;;5037193;28;20167;-69
2021/08/20 03:42:39;;;;;;;35.83;21.55;;;17.40;99.90;;;;;;5036789;28;20026;-69
2021/08/20 03:45:06;;;;;;;32.05;21.17;;;17.40;99.90;;;;;;5036992;28;20156;-69
2021/08/20 03:47:32;;;;;;;36.00;21.55;;;17.40;99.90;;;;;;5036794;28;20033;-70
2021/08/20 03:49:57;;;;;;;37.03;22.38;;;17.40;99.90;;;;;;5036721;28;20608;-69
2021/08/20 03:52:23;;;;;;;33.38;21.25;;;17.40;99.90;;;;;;5037202;28;20032;-70
2021/08/20 03:54:49;;;;;;;34.20;21.85;;;17.40;99.90;;;;;;5036838;28;20018;-70
2021/08/20 03:57:14;;;;;;;30.77;20.15;;;17.30;99.90;;;;;;5036644;28;20017;-70
2021/08/20 03:59:40;;;;;;;34.13;20.35;;;17.30;99.90;;;;;;5035599;28;20034;-71
2021/08/20 04:02:06;;;;;;;29.25;19.08;;;17.30;99.90;;;;;;5036754;28;20072;-71
2021/08/20 04:04:32;;;;;;;31.13;19.02;;;17.30;99.90;;;;;;5035503;28;20230;-69
2021/08/20 04:06:58;;;;;;;37.05;20.35;;;17.30;99.90;;;;;;5033979;28;20021;-69
2021/08/20 04:09:23;;;;;;;33.03;19.27;;;17.30;99.90;;;;;;5033433;28;20091;-69
2021/08/20 04:11:49;;;;;;;30.02;18.55;;;17.30;99.90;;;;;;5033386;28;20470;-69
2021/08/20 04:14:14;;;;;;;29.13;19.25;;;17.20;99.90;;;;;;5033521;28;20041;-69
2021/08/20 04:16:42;;;;;;;29.98;17.52;;;17.20;99.90;;;;;;5033381;28;20377;-70
2021/08/20 04:19:08;;;;;;;32.28;18.63;;;17.30;99.90;;;;;;5033972;28;20079;-70
2021/08/20 04:21:34;;;;;;;29.73;18.83;;;17.20;99.90;;;;;;5032282;28;20037;-70
2021/08/20 04:23:59;;;;;;;29.85;18.45;;;17.20;99.90;;;;;;5032973;28;20503;-69
2021/08/20 04:26:25;;;;;;;31.75;19.05;;;17.30;99.90;;;;;;5032136;28;20518;-70
2021/08/20 04:28:51;;;;;;;35.00;18.02;;;17.30;99.90;;;;;;5032820;28;20118;-70
2021/08/20 04:31:18;;;;;;;32.42;19.20;;;17.20;99.90;;;;;;5033631;28;20095;-70
2021/08/20 04:33:43;;;;;;;28.58;18.30;;;17.30;99.90;;;;;;5032760;28;20063;-69
2021/08/20 04:36:09;;;;;;;28.48;18.02;;;17.30;99.90;;;;;;5032862;28;20362;-70
2021/08/20 04:38:36;;;;;;;32.08;19.73;;;17.30;99.90;;;;;;5032836;28;20654;-69
2021/08/20 04:41:01;;;;;;;34.08;18.67;;;17.30;99.90;;;;;;5032842;28;20037;-70
2021/08/20 04:43:27;;;;;;;29.27;17.77;;;17.30;99.90;;;;;;5032940;28;20101;-70
2021/08/20 04:45:53;;;;;;;27.67;17.90;;;17.30;99.90;;;;;;5032743;28;20107;-70
2021/08/20 04:48:18;;;;;;;30.40;17.80;;;17.30;99.90;;;;;;5032890;28;20068;-71
2021/08/20 04:50:44;;;;;;;30.05;18.83;;;17.20;99.90;;;;;;5032735;28;20029;-70
2021/08/20 04:53:09;;;;;;;32.75;19.20;;;17.20;99.90;;;;;;5032630;28;20033;-70
2021/08/20 04:55:35;;;;;;;28.50;18.42;;;17.20;99.90;;;;;;5032772;28;20151;-70
2021/08/20 04:58:00;;;;;;;31.13;17.73;;;17.30;99.90;;;;;;5031987;28;20025;-70
2021/08/20 05:00:26;;;;;;;26.08;17.15;;;17.20;99.90;;;;;;5032509;28;20076;-70
2021/08/20 05:02:52;;;;;;;27.50;18.05;;;17.30;99.90;;;;;;5031340;28;20049;-70
2021/08/20 05:05:17;;;;;;;29.77;18.00;;;17.30;99.90;;;;;;5032397;28;20033;-70
2021/08/20 05:07:43;;;;;;;26.83;18.95;;;17.30;99.90;;;;;;5032289;28;20151;-70
2021/08/20 05:10:10;;;;;;;32.15;17.75;;;17.30;99.90;;;;;;5032889;28;20029;-70
2021/08/20 05:12:40;;;;;;;27.00;16.98;;;17.20;99.90;;;;;;5032500;28;20086;-70
2021/08/20 05:15:07;;;;;;;30.38;17.88;;;17.30;99.90;;;;;;5032428;28;20033;-70
2021/08/20 05:17:32;;;;;;;28.88;17.33;;;17.30;99.90;;;;;;5031966;28;20021;-70
2021/08/20 05:19:58;;;;;;;26.92;17.75;;;17.30;99.90;;;;;;5032254;28;20047;-69
2021/08/20 05:22:24;;;;;;;28.00;17.05;;;17.30;99.90;;;;;;5031204;28;20118;-69
2021/08/20 05:24:49;;;;;;;28.70;17.98;;;17.30;99.90;;;;;;5031869;28;20044;-70
2021/08/20 05:27:15;;;;;;;30.48;16.60;;;17.30;99.90;;;;;;5031053;28;20117;-71
2021/08/20 05:29:40;;;;;;;25.30;16.40;;;17.30;99.90;;;;;;5031973;28;20405;-69
2021/08/20 05:32:06;;;;;;;30.10;16.60;;;17.30;99.90;;;;;;5031878;28;20642;-70
2021/08/20 05:34:32;;;;;;;28.77;17.23;;;17.30;99.90;;;;;;5031445;28;20025;-70
2021/08/20 05:36:57;;;;;;;27.30;16.92;;;17.30;99.90;;;;;;5032002;28;20036;-70
2021/08/20 05:39:25;;;;;;;34.42;18.58;;;17.30;99.90;;;;;;5031561;28;20041;-71
2021/08/20 05:41:50;;;;;;;27.33;16.88;;;17.30;99.90;;;;;;5031625;28;20033;-70
2021/08/20 05:44:16;;;;;;;28.23;17.02;;;17.30;99.90;;;;;;5031533;28;20040;-70
2021/08/20 05:46:41;;;;;;;26.35;16.92;;;17.40;99.90;;;;;;5031452;28;20112;-71
2021/08/20 05:49:07;;;;;;;26.98;16.20;;;17.40;99.90;;;;;;5031869;28;20021;-70
2021/08/20 05:51:33;;;;;;;27.02;16.85;;;17.40;99.90;;;;;;5031465;28;20315;-70
2021/08/20 05:53:59;;;;;;;29.70;16.30;;;17.50;99.90;;;;;;5031465;28;20026;-70
2021/08/20 05:56:25;;;;;;;25.67;16.13;;;17.50;99.90;;;;;;5031655;28;20095;-71
2021/08/20 05:58:52;;;;;;;27.15;15.70;;;17.40;99.80;;;;;;5030437;28;20037;-70
2021/08/20 06:01:18;;;;;;;26.88;15.88;;;17.50;99.90;;;;;;5031008;28;20567;-71
2021/08/20 06:03:44;;;;;;;27.63;14.98;;;17.50;99.90;;;;;;5031241;28;20108;-72
2021/08/20 06:06:14;;;;;;;26.30;15.00;;;17.50;99.80;;;;;;5031182;28;20125;-71
2021/08/20 06:08:39;;;;;;;29.85;16.55;;;17.50;99.60;;;;;;5031470;28;20108;-71
2021/08/20 06:11:05;;;;;;;21.60;14.00;;;17.50;99.70;;;;;;5031266;28;20121;-71
2021/08/20 06:13:31;;;;;;;25.83;14.32;;;17.60;99.60;;;;;;5031642;28;20021;-72
2021/08/20 06:15:56;;;;;;;22.58;15.15;;;17.60;99.60;;;;;;5030162;28;20033;-74
2021/08/20 06:18:22;;;;;;;19.23;13.25;;;17.60;99.40;;;;;;5031368;28;20029;-70
2021/08/20 06:20:47;;;;;;;23.55;13.85;;;17.70;99.60;;;;;;5030716;28;20030;-74
2021/08/20 06:23:13;;;;;;;30.00;14.93;;;17.70;99.30;;;;;;5030860;28;20049;-74
2021/08/20 06:25:38;;;;;;;25.88;14.68;;;17.70;99.00;;;;;;5029822;28;20029;-72
2021/08/20 06:28:04;;;;;;;26.35;13.82;;;17.70;99.10;;;;;;5030288;28;20468;-71
2021/08/20 06:30:30;;;;;;;35.38;14.23;;;17.70;99.10;;;;;;5030914;28;20029;-74
2021/08/20 06:32:55;;;;;;;19.58;12.23;;;17.90;99.20;;;;;;5030668;28;20053;-75
2021/08/20 06:35:21;;;;;;;25.38;14.02;;;17.90;99.30;;;;;;5029824;28;20033;-71
2021/08/20 06:37:46;;;;;;;25.05;13.63;;;18.00;99.10;;;;;;5030311;28;20034;-70
2021/08/20 06:40:12;;;;;;;23.42;12.73;;;18.10;99.20;;;;;;5030411;28;20120;-70
2021/08/20 06:42:38;;;;;;;24.48;13.10;;;18.20;99.10;;;;;;5030449;28;20035;-70
2021/08/20 06:45:04;;;;;;;27.05;13.68;;;18.30;99.10;;;;;;5030249;28;20029;-74
2021/08/20 06:47:30;;;;;;;24.15;13.13;;;18.40;99.00;;;;;;5030395;28;20030;-69
2021/08/20 06:49:55;;;;;;;24.08;14.02;;;18.40;98.70;;;;;;5030405;28;20406;-72
2021/08/20 06:52:21;;;;;;;26.73;14.20;;;18.50;98.30;;;;;;5030884;28;20026;-73
2021/08/20 06:54:47;;;;;;;27.38;14.48;;;18.40;98.20;;;;;;5030384;28;20056;-72
2021/08/20 06:57:13;;;;;;;23.77;13.82;;;18.30;98.20;;;;;;5030439;28;20454;-73
2021/08/20 06:59:39;;;;;;;21.55;13.60;;;18.20;98.40;;;;;;5030490;28;20034;-73
2021/08/20 07:02:04;;;;;;;20.38;13.15;;;18.30;98.60;;;;;;5029247;28;20034;-73
2021/08/20 07:04:30;;;;;;;27.45;14.82;;;18.30;98.50;;;;;;5030760;28;20031;-72
2021/08/20 07:06:55;;;;;;;23.25;14.27;;;18.10;98.40;;;;;;5030162;28;20033;-70
2021/08/20 07:09:22;;;;;;;25.73;15.30;;;18.10;98.70;;;;;;5030052;28;20025;-69
2021/08/20 07:11:48;;;;;;;24.15;15.10;;;18.10;98.80;;;;;;5029146;28;20099;-68
2021/08/20 07:14:13;;;;;;;25.77;15.90;;;18.20;98.80;;;;;;5030342;28;20033;-73
2021/08/20 07:16:39;;;;;;;26.50;15.02;;;18.20;98.70;;;;;;5030921;28;20030;-71
2021/08/20 07:19:04;;;;;;;27.10;15.30;;;18.20;98.60;;;;;;5031417;28;20099;-71
2021/08/20 07:21:30;;;;;;;24.15;15.10;;;18.20;98.70;;;;;;5030724;28;20156;-73
2021/08/20 07:23:55;;;;;;;30.15;16.80;;;18.30;98.60;;;;;;5029433;28;20068;-74
2021/08/20 07:26:21;;;;;;;27.05;15.57;;;18.30;98.50;;;;;;5030052;28;20033;-74
2021/08/20 07:28:46;;;;;;;31.35;15.88;;;18.30;98.40;;;;;;5030291;28;20341;-74
2021/08/20 07:31:12;;;;;;;23.48;14.93;;;18.40;98.60;;;;;;5030422;28;20025;-68
2021/08/20 07:33:37;;;;;;;31.58;16.08;;;18.50;98.50;;;;;;5030528;28;20105;-72
2021/08/20 07:36:04;;;;;;;29.60;16.15;;;18.50;98.40;;;;;;5031054;28;20136;-73
2021/08/20 07:38:30;;;;;;;27.25;15.98;;;18.40;98.40;;;;;;5030739;28;20025;-73
2021/08/20 07:40:55;;;;;;;26.40;17.20;;;18.40;98.40;;;;;;5034094;28;20044;-74
2021/08/20 07:43:21;;;;;;;27.02;16.45;;;18.50;98.40;;;;;;5034585;28;20025;-73
2021/08/20 07:45:47;;;;;;;26.45;14.68;;;18.60;98.40;;;;;;5034337;28;20040;-72
2021/08/20 07:48:12;;;;;;;24.50;15.65;;;18.70;98.30;;;;;;5034464;28;20026;-74
2021/08/20 07:50:40;;;;;;;25.77;16.48;;;18.80;98.30;;;;;;5034125;28;20352;-72
2021/08/20 07:53:06;;;;;;;30.55;17.38;;;18.90;98.30;;;;;;5033888;28;20041;-74
2021/08/20 07:55:33;;;;;;;29.23;16.85;;;19.10;98.10;;;;;;5033975;28;20076;-70
2021/08/20 07:57:59;;;;;;;24.08;14.73;;;19.10;97.90;;;;;;5034209;28;20044;-71
2021/08/20 08:00:30;;;;;;;30.80;16.58;;;19.20;98.00;;;;;;5033601;28;20368;-73
2021/08/20 08:02:57;;;;;;;27.35;16.23;;;19.10;97.70;;;;;;5033431;28;20132;-73
2021/08/20 08:05:23;;;;;;;26.85;16.75;;;19.20;97.80;;;;;;5033799;28;20083;-74
2021/08/20 08:07:50;;;;;;;34.05;16.63;;;19.30;97.60;;;;;;5033893;28;20026;-74
2021/08/20 08:10:16;;;;;;;27.98;17.00;;;19.50;97.70;;;;;;5033599;28;20040;-73
2021/08/20 08:12:43;;;;;;;32.92;20.95;;;19.50;97.20;;;;;;5033337;28;20040;-72
2021/08/20 08:15:11;;;;;;;28.38;16.10;;;19.70;97.10;;;;;;5033190;28;20451;-74
2021/08/20 08:17:37;;;;;;;25.63;14.87;;;19.90;96.90;;;;;;5033245;28;20061;-74
2021/08/20 08:20:08;;;;;;;30.08;15.98;;;20.00;96.60;;;;;;5033128;28;20255;-72
2021/08/20 08:22:34;;;;;;;23.33;15.30;;;20.00;96.50;;;;;;5033153;28;20450;-69
2021/08/20 08:25:00;;;;;;;29.52;15.57;;;20.00;96.30;;;;;;5033346;28;20026;-70
2021/08/20 08:27:25;;;;;;;26.38;14.52;;;20.30;96.20;;;;;;5032812;28;20049;-69
2021/08/20 08:29:51;;;;;;;23.77;13.98;;;20.50;96.00;;;;;;5033097;28;20033;-70
2021/08/20 08:32:17;;;;;;;24.77;14.45;;;20.90;95.90;;;;;;5032937;28;20026;-70
2021/08/20 08:34:42;;;;;;;31.05;14.82;;;20.80;95.30;;;;;;5032686;28;20341;-71
2021/08/20 08:37:08;;;;;;;24.48;13.38;;;20.80;95.40;;;;;;5033226;28;20107;-70
2021/08/20 08:39:34;;;;;;;23.83;14.35;;;21.00;95.50;;;;;;5032480;28;20029;-69
2021/08/20 08:42:00;;;;;;;28.58;15.02;;;21.30;95.10;;;;;;5032227;28;20038;-69
2021/08/20 08:44:26;;;;;;;24.38;13.73;;;21.60;94.60;;;;;;5031572;28;20045;-71
2021/08/20 08:46:51;;;;;;;22.27;13.15;;;22.10;93.30;;;;;;5031473;28;20041;-70
2021/08/20 08:49:21;;;;;;;24.77;12.70;;;22.60;92.90;;;;;;5032992;28;20439;-70
2021/08/20 08:51:46;;;;;;;21.00;12.27;;;22.80;92.60;;;;;;5031908;28;20042;-68
2021/08/20 08:54:13;;;;;;;21.50;12.45;;;23.40;92.10;;;;;;5031574;28;20487;-73
2021/08/20 08:56:46;;;;;;;15.93;11.02;;;24.00;90.70;;;;;;5032427;28;20123;-72
2021/08/20 08:59:12;;;;;;;21.10;11.95;;;24.50;89.90;;;;;;5032504;28;20033;-69
2021/08/20 09:01:38;;;;;;;18.48;10.75;;;24.70;90.60;;;;;;5032509;28;20052;-69
2021/08/20 09:04:10;;;;;;;31.35;19.15;;;25.90;88.10;;;;;;5032787;28;20435;-69
2021/08/20 09:06:44;;;;;;;17.80;12.13;;;26.50;87.60;;;;;;5032311;28;20033;-69
2021/08/20 09:09:11;;;;;;;17.90;12.20;;;27.10;82.50;;;;;;5032126;28;20022;-71
2021/08/20 09:11:38;;;;;;;14.95;9.82;;;26.90;84.40;;;;;;5032467;28;20100;-69
2021/08/20 09:14:04;;;;;;;15.75;10.35;;;26.70;81.60;;;;;;5032074;28;20029;-70
2021/08/20 09:16:44;;;;;;;19.00;10.65;;;26.00;80.00;;;;;;5032552;28;20029;-70
2021/08/20 09:19:12;;;;;;;15.13;9.90;;;25.70;81.20;;;;;;5032198;28;20497;-69
2021/08/20 09:21:39;;;;;;;21.52;8.98;;;24.60;82.20;;;;;;5032129;28;20033;-69
2021/08/20 09:24:30;;;;;;;17.58;8.68;;;25.30;84.10;;;;;;5031919;28;20065;-68
2021/08/20 09:27:14;;;;;;;16.33;8.13;;;25.80;82.90;;;;;;5031980;28;20048;-69
2021/08/20 09:30:14;;;;;;;16.15;8.98;;;27.20;81.00;;;;;;5032104;28;20029;-69
2021/08/20 09:32:52;;;;;;;14.77;8.35;;;27.90;75.90;;;;;;5032175;28;20038;-68
2021/08/20 09:35:18;;;;;;;14.23;9.43;;;27.50;77.30;;;;;;5031681;28;20106;-69
2021/08/20 09:37:43;;;;;;;12.65;7.43;;;27.40;74.70;;;;;;5031745;28;20048;-69
2021/08/20 09:40:12;;;;;;;14.48;8.35;;;28.40;76.20;;;;;;5032284;28;20432;-69
2021/08/20 09:42:38;;;;;;;13.27;9.30;;;28.00;75.30;;;;;;5031655;28;20128;-69
2021/08/20 09:45:15;;;;;;;18.10;8.93;;;26.90;73.40;;;;;;5032286;28;20186;-69
2021/08/20 09:48:00;;;;;;;14.47;9.23;;;26.90;74.10;;;;;;5025253;28;20487;-69
2021/08/20 09:50:42;;;;;;;9.82;7.20;;;26.70;74.30;;;;;;5031851;28;20278;-70
2021/08/20 09:53:13;;;;;;;12.95;7.45;;;25.80;75.20;;;;;;5032064;28;20028;-68
2021/08/20 09:55:40;;;;;;;17.92;8.10;;;25.30;75.80;;;;;;5032061;28;20049;-71
2021/08/20 09:58:58;;;;;;;16.02;7.45;;;24.20;78.00;;;;;;5057900;27;20808;-70
2021/08/20 10:01:29;;;;;;;14.98;7.97;;;23.90;80.20;;;;;;5039717;28;20103;-70
2021/08/20 10:03:59;;;;;;;14.00;8.05;;;23.80;80.20;;;;;;5028347;28;20470;-71
2021/08/20 10:06:55;;;;;;;12.10;6.53;;;23.90;79.90;;;;;;5028636;28;20098;-71
2021/08/20 10:09:20;;;;;;;16.30;7.75;;;23.90;80.60;;;;;;5032307;28;20041;-71
2021/08/20 10:11:52;;;;;;;13.32;7.32;;;23.80;80.30;;;;;;5028509;28;20018;-71
2021/08/20 10:14:20;;;;;;;11.43;6.53;;;23.80;81.90;;;;;;5028894;28;20049;-70
2021/08/20 10:16:46;;;;;;;14.15;6.72;;;24.70;82.10;;;;;;5028319;28;20034;-70
2021/08/20 10:19:12;;;;;;;10.80;6.45;;;25.60;77.90;;;;;;5028428;28;20482;-69
2021/08/20 10:21:40;;;;;;;13.30;7.68;;;25.80;77.50;;;;;;5028266;28;20030;-69
2021/08/20 10:24:07;;;;;;;14.27;7.30;;;26.10;76.00;;;;;;5028615;28;20038;-69
2021/08/20 10:26:33;;;;;;;12.17;7.27;;;26.30;75.50;;;;;;5028724;28;20026;-69
2021/08/20 10:29:01;;;;;;;10.90;6.88;;;27.00;74.80;;;;;;5028025;28;20767;-68
2021/08/20 10:31:28;;;;;;;9.15;5.85;;;27.20;73.10;;;;;;5028092;28;20125;-71
2021/08/20 10:33:54;;;;;;;10.93;6.40;;;27.10;72.30;;;;;;5027836;28;20084;-70
2021/08/20 10:36:36;;;;;;;13.45;6.93;;;27.30;72.60;;;;;;5027902;28;20037;-68
2021/08/20 10:39:02;;;;;;;9.95;6.57;;;27.30;70.60;;;;;;5028028;28;20021;-70
2021/08/20 10:41:28;;;;;;;9.73;7.28;;;26.70;73.10;;;;;;5028115;28;20036;-70
2021/08/20 10:43:58;;;;;;;10.55;6.25;;;26.50;72.80;;;;;;5027915;28;20021;-70
2021/08/20 10:46:32;;;;;;;9.98;5.70;;;26.30;73.30;;;;;;5027952;28;20033;-74
2021/08/20 10:51:55;;;;;;;7.20;4.75;;;26.30;73.20;;;;;;5028070;28;20052;-69
2021/08/20 10:54:30;;;;;;;9.25;4.82;;;26.40;74.40;;;;;;5027783;28;20107;-71
2021/08/20 10:56:56;;;;;;;7.03;4.22;;;26.60;71.90;;;;;;5027580;28;20053;-71
2021/08/20 10:59:37;;;;;;;8.27;4.40;;;26.40;73.00;;;;;;5028061;28;20018;-70
2021/08/20 11:02:24;;;;;;;8.55;4.38;;;26.20;74.20;;;;;;5027833;28;20107;-69
2021/08/20 11:05:10;;;;;;;5.22;3.90;;;25.80;72.80;;;;;;5026870;28;20038;-70
2021/08/20 11:07:42;;;;;;;6.75;4.30;;;25.70;74.00;;;;;;5027678;28;20033;-70
2021/08/20 11:10:07;;;;;;;9.88;4.78;;;25.40;74.00;;;;;;5014738;28;20069;-71
2021/08/20 11:13:00;;;;;;;9.98;5.20;;;25.20;75.00;;;;;;5014137;28;20037;-70
2021/08/20 11:15:30;;;;;;;8.30;5.38;;;25.10;75.70;;;;;;5014589;28;20243;-71
2021/08/20 11:17:57;;;;;;;8.93;4.70;;;25.30;75.70;;;;;;5014126;28;20056;-70
2021/08/20 11:20:27;;;;;;;8.35;4.60;;;25.30;74.80;;;;;;5014463;28;20080;-70
2021/08/20 11:23:05;;;;;;;8.50;4.65;;;25.20;75.80;;;;;;5014054;28;20121;-71
2021/08/20 11:25:40;;;;;;;;;;;24.70;76.70;;;;;;5014601;28;20050;-71
2021/08/20 11:28:45;;;;;;;7.43;4.45;;;24.50;77.70;;;;;;5014115;28;20255;-71
2021/08/20 11:31:11;;;;;;;9.15;4.30;;;24.50;78.00;;;;;;5021923;28;20080;-71
2021/08/20 11:33:45;;;;;;;16.00;5.87;;;24.40;78.50;;;;;;5013871;28;20470;-72
2021/08/20 11:36:19;;;;;;;8.75;5.20;;;24.40;79.10;;;;;;5013908;28;20036;-72
2021/08/20 11:38:55;;;;;;;8.50;5.70;;;24.50;79.40;;;;;;5013343;28;20037;-71
2021/08/20 11:41:25;;;;;;;9.43;4.97;;;24.20;79.20;;;;;;5014027;28;20022;-72
2021/08/20 11:43:53;;;;;;;8.55;5.20;;;24.40;78.90;;;;;;5013656;28;20081;-71
2021/08/20 11:46:19;;;;;;;9.25;5.03;;;24.40;78.50;;;;;;5013755;28;20049;-69
2021/08/20 11:48:46;;;;;;;7.10;5.10;;;24.40;79.00;;;;;;5013552;28;20456;-71
2021/08/20 11:51:13;;;;;;;8.55;5.03;;;24.50;78.80;;;;;;5013441;28;20371;-72
2021/08/20 11:53:39;;;;;;;10.93;4.43;;;24.40;78.70;;;;;;5013604;28;20033;-69
2021/08/20 11:56:16;;;;;;;8.27;5.50;;;24.20;78.70;;;;;;5013407;28;20041;-71
2021/08/20 11:58:43;;;;;;;6.40;4.90;;;24.20;79.50;;;;;;5013268;28;20074;-70
2021/08/20 12:01:22;;;;;;;9.05;5.40;;;24.20;78.40;;;;;;5013704;28;20041;-71
2021/08/20 12:03:50;;;;;;;41.03;25.58;;;24.20;79.80;;;;;;5013657;28;20041;-73
2021/08/20 12:06:16;;;;;;;9.02;5.70;;;24.20;79.50;;;;;;5013569;28;20666;-73
2021/08/20 12:08:43;;;;;;;4.93;3.92;;;24.40;78.60;;;;;;5013679;28;20594;-69
2021/08/20 12:11:11;;;;;;;5.60;3.90;;;24.40;77.90;;;;;;5013007;28;20110;-72
2021/08/20 12:13:47;;;;;;;4.97;3.70;;;24.30;77.10;;;;;;5016157;28;20068;-71
2021/08/20 12:16:36;;;;;;;5.25;3.42;;;24.30;77.10;;;;;;5040402;28;20157;-72
2021/08/20 12:19:19;;;;;;;5.53;3.70;;;24.20;78.10;;;;;;5032592;28;20048;-72
2021/08/20 12:21:47;;;;;;;6.07;3.78;;;24.10;78.60;;;;;;5031706;28;20082;-73
2021/08/20 12:24:15;;;;;;;7.80;4.47;;;24.10;79.10;;;;;;5032982;28;20025;-71
2021/08/20 12:26:41;;;;;;;12.77;6.90;;;24.10;77.50;;;;;;5033193;28;20470;-73
2021/08/20 12:29:18;;;;;;;6.95;4.30;;;23.90;78.80;;;;;;5031434;28;20033;-71
2021/08/20 12:31:58;;;;;;;8.13;3.45;;;23.80;78.50;;;;;;5032692;28;20092;-71
2021/08/20 12:34:32;;;;;;;7.65;3.75;;;24.10;78.40;;;;;;5032272;28;20033;-72
2021/08/20 12:36:59;;;;;;;6.38;3.90;;;24.00;78.70;;;;;;5032169;28;20051;-70